Time;durP1;ratioP1;P1;durP2;ratioP2;P2;SDS_P1;SDS_P2;PMS_P1;PMS_P2;Temp;Humidity;BMP_temperature;BMP_pressure;BME280_temperature;BME280_humidity;BME280_pressure;Samples;Min_cycle;Max_cycle;Signal;HPM_P1;HPM_P2
2020/12/23 00:00:51;;;;;;;3.95;3.17;;;;;;;17.66;70.15;102072.19;5049450;28;20436;-71
2020/12/23 00:03:16;;;;;;;6.00;3.10;;;;;;;17.70;69.85;102089.16;5051001;28;20033;-70
2020/12/23 00:05:42;;;;;;;3.83;3.10;;;;;;;17.79;69.84;102082.09;5050523;28;20381;-71
2020/12/23 00:08:07;;;;;;;12.27;3.28;;;;;;;17.75;69.51;102079.41;5050202;28;20060;-71
2020/12/23 00:10:32;;;;;;;6.47;3.10;;;;;;;17.74;69.94;102081.16;5049710;28;20033;-71
2020/12/23 00:12:58;;;;;;;7.13;3.35;;;;;;;17.72;69.49;102080.25;5052099;28;20036;-70
2020/12/23 00:15:23;;;;;;;7.90;3.50;;;;;;;17.71;69.71;102080.28;5050060;28;20029;-70
2020/12/23 00:17:48;;;;;;;5.75;2.97;;;;;;;17.70;70.14;102091.81;5051584;28;20265;-72
2020/12/23 00:20:14;;;;;;;24.90;3.38;;;;;;;17.72;70.06;102090.06;5050607;28;20029;-72
2020/12/23 00:22:39;;;;;;;8.48;3.03;;;;;;;17.74;69.47;102091.84;5049798;28;20036;-72
2020/12/23 00:25:04;;;;;;;5.30;3.05;;;;;;;17.75;69.38;102084.75;5051331;28;20045;-71
2020/12/23 00:27:30;;;;;;;3.75;2.90;;;;;;;17.73;70.05;102084.72;5051017;28;20021;-72
2020/12/23 00:29:55;;;;;;;4.40;2.97;;;;;;;17.73;69.72;102089.16;5049171;28;20044;-72
2020/12/23 00:32:20;;;;;;;3.58;2.95;;;;;;;17.72;69.82;102085.59;5049635;28;20043;-72
2020/12/23 00:34:46;;;;;;;6.15;3.35;;;;;;;17.71;69.65;102081.16;5050057;28;20036;-71
2020/12/23 00:37:11;;;;;;;3.35;3.05;;;;;;;17.72;69.86;102074.91;5050623;28;20637;-72
2020/12/23 00:39:36;;;;;;;10.73;3.85;;;;;;;17.72;69.96;102080.25;5050385;28;20558;-70
2020/12/23 00:42:02;;;;;;;8.02;3.05;;;;;;;17.79;69.63;102081.19;5049049;28;20051;-71
2020/12/23 00:44:27;;;;;;;5.88;2.63;;;;;;;17.79;69.30;102074.06;5049854;28;20033;-70
2020/12/23 00:46:52;;;;;;;4.57;2.92;;;;;;;17.80;69.59;102075.88;5049580;28;20064;-70
2020/12/23 00:49:18;;;;;;;12.18;2.90;;;;;;;17.80;69.46;102066.97;5050758;28;20020;-70
2020/12/23 00:51:43;;;;;;;4.50;2.83;;;;;;;17.80;69.57;102058.94;5050648;28;20040;-70
2020/12/23 00:54:08;;;;;;;14.75;2.75;;;;;;;17.81;69.26;102058.06;5049578;28;20017;-70
2020/12/23 00:56:34;;;;;;;6.55;2.67;;;;;;;17.78;69.35;102056.28;5049185;28;20132;-71
2020/12/23 00:58:59;;;;;;;4.45;2.53;;;;;;;17.79;69.11;102049.13;5050515;28;20032;-70
2020/12/23 01:01:24;;;;;;;3.63;2.35;;;;;;;17.80;69.02;102056.28;5048483;28;20505;-70
2020/12/23 01:03:50;;;;;;;3.90;2.75;;;;;;;17.81;69.01;102045.59;5049975;28;20435;-69
2020/12/23 01:06:15;;;;;;;3.20;2.22;;;;;;;17.78;69.41;102050.94;5048297;28;20074;-70
2020/12/23 01:08:40;;;;;;;3.33;2.20;;;;;;;17.77;69.08;102034.91;5050200;28;20119;-70
2020/12/23 01:11:06;;;;;;;3.30;2.55;;;;;;;17.77;68.86;102025.09;5049379;28;20494;-70
2020/12/23 01:13:31;;;;;;;2.78;2.20;;;;;;;17.77;68.77;102030.44;5049403;28;20068;-70
2020/12/23 01:15:57;;;;;;;2.95;2.22;;;;;;;17.74;69.10;102010.81;5048360;28;20060;-71
2020/12/23 01:18:23;;;;;;;2.95;2.35;;;;;;;17.74;69.28;102021.50;5049507;28;20031;-70
2020/12/23 01:20:48;;;;;;;3.25;2.45;;;;;;;17.79;69.33;102019.75;5049752;28;20248;-70
2020/12/23 01:23:13;;;;;;;3.28;2.65;;;;;;;17.79;68.81;102017.06;5049302;28;20029;-70
2020/12/23 01:25:39;;;;;;;2.97;2.47;;;;;;;17.79;68.87;102015.31;5049554;28;20025;-70
2020/12/23 01:28:04;;;;;;;3.20;2.20;;;;;;;17.80;68.61;102016.19;5048437;28;20067;-71
2020/12/23 01:30:29;;;;;;;7.68;2.20;;;;;;;17.82;68.84;102018.00;5049362;28;20500;-71
2020/12/23 01:32:55;;;;;;;8.43;2.20;;;;;;;17.83;68.69;102006.44;5050606;28;20452;-71
2020/12/23 01:35:20;;;;;;;3.05;2.00;;;;;;;17.83;69.16;102001.09;5050505;28;20100;-72
2020/12/23 01:37:45;;;;;;;5.20;2.38;;;;;;;17.81;69.24;101999.28;5049180;28;20036;-71
2020/12/23 01:40:11;;;;;;;2.92;1.98;;;;;;;17.81;69.31;101997.50;5049654;28;20059;-71
2020/12/23 01:42:36;;;;;;;3.08;1.83;;;;;;;17.81;69.08;101999.28;5048906;28;20037;-71
2020/12/23 01:45:01;;;;;;;2.10;1.90;;;;;;;17.77;69.08;101993.06;5048968;28;20068;-71
2020/12/23 01:47:28;;;;;;;3.83;2.65;;;;;;;17.79;68.64;102003.72;5049375;28;20033;-72
2020/12/23 01:49:53;;;;;;;7.97;2.20;;;;;;;17.80;68.97;102002.84;5049923;28;20032;-71
2020/12/23 01:52:18;;;;;;;2.90;2.10;;;;;;;17.79;68.77;102001.94;5047773;28;20033;-72
2020/12/23 01:54:44;;;;;;;2.08;1.88;;;;;;;17.79;68.78;101996.59;5048363;28;20040;-70
2020/12/23 01:57:09;;;;;;;2.95;1.65;;;;;;;17.80;69.01;101992.16;5049808;28;20542;-70
2020/12/23 01:59:34;;;;;;;7.43;2.17;;;;;;;17.77;69.40;101992.16;5049696;28;20407;-70
2020/12/23 02:02:00;;;;;;;1.88;1.60;;;;;;;17.77;68.79;101993.06;5048632;28;20086;-71
2020/12/23 02:04:25;;;;;;;3.10;1.80;;;;;;;17.77;69.42;101994.81;5049497;28;20640;-71
2020/12/23 02:06:51;;;;;;;2.22;1.80;;;;;;;17.74;68.96;101995.69;5047830;28;20033;-70
2020/12/23 02:09:16;;;;;;;4.22;2.20;;;;;;;17.72;69.09;101999.25;5046953;28;20021;-70
2020/12/23 02:11:41;;;;;;;6.45;1.98;;;;;;;17.71;69.18;101993.00;5047784;28;20056;-71
2020/12/23 02:14:07;;;;;;;3.40;1.77;;;;;;;17.70;69.23;101995.66;5047549;28;20150;-71
2020/12/23 02:16:32;;;;;;;2.10;1.90;;;;;;;17.73;68.82;101998.34;5049527;28;20125;-70
2020/12/23 02:18:57;;;;;;;4.07;1.80;;;;;;;17.71;68.89;101995.69;5047174;28;20040;-70
2020/12/23 02:21:23;;;;;;;3.10;2.05;;;;;;;17.73;69.14;101995.66;5048905;28;20025;-71
2020/12/23 02:23:49;;;;;;;3.47;1.73;;;;;;;17.72;68.85;101997.44;5049014;28;20148;-69
2020/12/23 02:26:14;;;;;;;5.30;1.83;;;;;;;17.72;69.35;101997.44;5049387;28;20107;-70
2020/12/23 02:28:39;;;;;;;2.75;1.58;;;;;;;17.67;69.46;101987.63;5049102;28;20086;-70
2020/12/23 02:31:05;;;;;;;3.42;1.77;;;;;;;17.68;69.20;101994.75;5048598;28;20021;-70
2020/12/23 02:33:30;;;;;;;1.98;1.50;;;;;;;17.68;69.00;101997.44;5048852;28;20025;-70
2020/12/23 02:35:55;;;;;;;2.42;1.48;;;;;;;17.76;69.01;101995.72;5046438;28;20029;-71
2020/12/23 02:38:21;;;;;;;4.30;1.52;;;;;;;17.71;68.99;101992.13;5047690;28;20135;-70
2020/12/23 02:40:46;;;;;;;3.08;2.22;;;;;;;17.70;68.99;101993.91;5048502;28;20354;-70
2020/12/23 02:43:11;;;;;;;2.97;1.30;;;;;;;17.73;69.06;102001.00;5047566;28;20040;-70
2020/12/23 02:45:37;;;;;;;3.55;1.42;;;;;;;17.73;68.59;102009.94;5048206;28;20068;-70
2020/12/23 02:48:02;;;;;;;5.10;1.58;;;;;;;17.74;68.98;101994.78;5049114;28;20048;-70
2020/12/23 02:50:27;;;;;;;1.80;1.42;;;;;;;17.76;68.34;102006.41;5048172;28;20036;-70
2020/12/23 02:52:53;;;;;;;2.17;1.42;;;;;;;17.77;68.66;102008.19;5048261;28;20396;-70
2020/12/23 02:55:18;;;;;;;3.15;1.38;;;;;;;17.77;68.48;102009.09;5047737;28;20078;-70
2020/12/23 02:57:43;;;;;;;1.60;1.50;;;;;;;17.77;68.54;102008.19;5046460;28;20063;-70
2020/12/23 03:00:09;;;;;;;1.95;1.58;;;;;;;17.72;68.45;102005.47;5047281;28;20386;-70
2020/12/23 03:02:34;;;;;;;5.93;1.35;;;;;;;17.75;68.66;102012.63;5048136;28;20116;-70
2020/12/23 03:04:59;;;;;;;1.92;1.45;;;;;;;17.76;68.22;102007.28;5049125;28;20040;-70
2020/12/23 03:07:25;;;;;;;5.57;1.40;;;;;;;17.77;68.47;102017.09;5046350;28;20044;-70
2020/12/23 03:09:50;;;;;;;2.20;1.60;;;;;;;17.79;67.91;102017.06;5048192;28;20068;-70
2020/12/23 03:12:15;;;;;;;3.42;1.60;;;;;;;17.81;68.60;102020.66;5048193;28;20029;-71
2020/12/23 03:14:41;;;;;;;7.03;1.45;;;;;;;17.79;68.41;102019.75;5046913;28;20147;-70
2020/12/23 03:17:06;;;;;;;3.80;1.40;;;;;;;17.81;68.17;102005.53;5046740;28;20055;-70
2020/12/23 03:19:31;;;;;;;1.80;1.05;;;;;;;17.79;68.19;102017.97;5048904;28;20112;-70
2020/12/23 03:21:57;;;;;;;7.55;1.30;;;;;;;17.80;68.23;102021.53;5047645;28;20021;-70
2020/12/23 03:24:22;;;;;;;5.55;1.33;;;;;;;17.78;68.33;102018.00;5047882;28;20036;-70
2020/12/23 03:26:47;;;;;;;3.78;1.40;;;;;;;17.74;68.08;102013.50;5048717;28;20044;-70
2020/12/23 03:29:13;;;;;;;4.53;0.95;;;;;;;17.74;68.81;102017.06;5046543;28;20027;-71
2020/12/23 03:31:39;;;;;;;2.50;1.42;;;;;;;17.72;68.85;102024.16;5048230;28;20033;-70
2020/12/23 03:34:04;;;;;;;1.98;1.60;;;;;;;17.72;68.44;102018.81;5048257;28;20047;-70
2020/12/23 03:36:29;;;;;;;2.22;1.30;;;;;;;17.72;68.61;102016.16;5047220;28;20482;-70
2020/12/23 03:38:55;;;;;;;11.75;1.38;;;;;;;17.78;68.21;102015.31;5045892;28;20464;-70
2020/12/23 03:41:20;;;;;;;3.30;1.45;;;;;;;17.70;68.53;102014.38;5046616;28;20485;-69
2020/12/23 03:43:45;;;;;;;2.83;1.33;;;;;;;17.75;68.13;102026.88;5046613;28;20033;-70
2020/12/23 03:46:11;;;;;;;2.47;1.30;;;;;;;17.77;68.58;102021.53;5048703;28;20033;-70
2020/12/23 03:48:36;;;;;;;4.45;1.23;;;;;;;17.74;68.30;102025.06;5047104;28;20040;-70
2020/12/23 03:51:01;;;;;;;3.28;1.50;;;;;;;17.76;68.26;102022.41;5047928;28;20090;-71
2020/12/23 03:53:27;;;;;;;2.47;1.20;;;;;;;17.77;68.03;102021.53;5047918;28;20123;-71
2020/12/23 03:55:52;;;;;;;3.55;1.02;;;;;;;17.73;67.60;102022.38;5047271;28;20082;-70
2020/12/23 03:58:18;;;;;;;3.55;1.23;;;;;;;17.77;67.91;102024.22;5054783;28;20103;-71
2020/12/23 04:00:43;;;;;;;2.00;1.20;;;;;;;17.71;67.73;102033.09;5046804;28;20047;-71
2020/12/23 04:03:08;;;;;;;5.55;1.02;;;;;;;17.75;68.10;102033.97;5047037;28;20167;-70
2020/12/23 04:05:34;;;;;;;3.45;1.00;;;;;;;17.73;67.65;102035.75;5051244;28;20078;-70
2020/12/23 04:07:59;;;;;;;1.98;1.13;;;;;;;17.72;68.34;102039.31;5051519;28;20040;-70
2020/12/23 04:10:24;;;;;;;5.80;1.10;;;;;;;17.73;67.58;102038.41;5049664;28;20031;-70
2020/12/23 04:12:50;;;;;;;1.70;1.00;;;;;;;17.73;67.93;102043.75;5050939;28;20029;-71
2020/12/23 04:15:15;;;;;;;1.48;0.90;;;;;;;17.73;68.20;102043.75;5051298;28;20031;-70
2020/12/23 04:17:40;;;;;;;13.18;1.10;;;;;;;17.70;68.07;102044.66;5050322;28;20048;-70
2020/12/23 04:20:06;;;;;;;1.35;1.05;;;;;;;17.70;67.27;102041.97;5050390;28;20590;-70
2020/12/23 04:22:31;;;;;;;1.92;1.05;;;;;;;17.67;67.89;102041.03;5049758;28;20090;-70
2020/12/23 04:24:56;;;;;;;1.70;1.00;;;;;;;17.69;67.84;102055.31;5050022;28;20461;-70
2020/12/23 04:27:22;;;;;;;1.40;0.90;;;;;;;17.70;67.63;102044.66;5049599;28;20067;-70
2020/12/23 04:29:47;;;;;;;3.35;0.90;;;;;;;17.68;67.35;102049.06;5051780;28;20388;-70
2020/12/23 04:32:12;;;;;;;1.15;0.80;;;;;;;17.73;67.66;102067.78;5049702;28;20079;-70
2020/12/23 04:34:38;;;;;;;4.20;1.05;;;;;;;17.67;67.21;102060.63;5051777;28;20029;-70
2020/12/23 04:37:03;;;;;;;2.45;1.10;;;;;;;17.71;67.20;102066.91;5050717;28;20105;-71
2020/12/23 04:39:28;;;;;;;3.60;1.00;;;;;;;17.73;67.23;102063.34;5051128;28;20108;-71
2020/12/23 04:41:54;;;;;;;1.45;1.00;;;;;;;17.72;67.06;102056.22;5051609;28;20067;-71
2020/12/23 04:44:19;;;;;;;2.85;1.08;;;;;;;17.82;66.41;102067.88;5050947;28;20020;-72
2020/12/23 04:46:44;;;;;;;13.52;1.35;;;;;;;17.79;66.90;102071.41;5050496;28;20029;-71
2020/12/23 04:49:10;;;;;;;4.20;1.17;;;;;;;17.76;67.32;102074.06;5049756;28;20037;-71
2020/12/23 04:51:35;;;;;;;1.92;1.02;;;;;;;17.72;67.08;102082.94;5049743;28;20025;-71
2020/12/23 04:54:00;;;;;;;1.95;1.20;;;;;;;17.67;67.09;102081.09;5050608;28;20033;-70
2020/12/23 04:56:26;;;;;;;8.07;1.10;;;;;;;17.69;67.19;102087.38;5049557;28;20053;-71
2020/12/23 04:58:51;;;;;;;6.60;0.93;;;;;;;17.69;67.79;102079.34;5049085;28;20422;-71
2020/12/23 05:01:16;;;;;;;1.95;1.00;;;;;;;17.64;67.47;102084.66;5049767;28;20029;-71
2020/12/23 05:03:42;;;;;;;3.13;0.98;;;;;;;17.66;66.92;102088.22;5049124;28;20044;-71
2020/12/23 05:06:07;;;;;;;1.27;0.88;;;;;;;17.65;67.76;102083.78;5050907;28;20111;-72
2020/12/23 05:08:34;;;;;;;5.22;0.90;;;;;;;17.67;67.15;102084.69;5049641;28;20110;-71
2020/12/23 05:10:59;;;;;;;4.63;1.00;;;;;;;17.68;67.51;102085.56;5049044;28;20029;-70
2020/12/23 05:13:25;;;;;;;3.42;1.17;;;;;;;17.72;66.95;102087.41;5048648;28;20440;-70
2020/12/23 05:15:50;;;;;;;5.10;1.00;;;;;;;17.68;67.30;102090.91;5050207;28;20171;-71
2020/12/23 05:18:15;;;;;;;6.25;1.10;;;;;;;17.67;67.12;102090.00;5049862;28;20047;-71
2020/12/23 05:20:41;;;;;;;4.40;1.10;;;;;;;17.63;67.04;102093.56;5050419;28;20796;-71
2020/12/23 05:23:06;;;;;;;16.83;1.10;;;;;;;17.66;67.01;102098.00;5049429;28;20087;-69
2020/12/23 05:25:32;;;;;;;9.52;1.10;;;;;;;17.70;66.86;102092.72;5048605;28;20029;-70
2020/12/23 05:27:57;;;;;;;17.13;1.15;;;;;;;17.74;66.71;102094.53;5050361;28;20029;-70
2020/12/23 05:30:22;;;;;;;17.15;1.10;;;;;;;17.80;66.65;102088.34;5047612;28;20386;-70
2020/12/23 05:32:48;;;;;;;10.57;1.20;;;;;;;17.82;66.51;102094.59;5049882;28;20033;-71
2020/12/23 05:35:13;;;;;;;7.68;1.10;;;;;;;17.71;67.35;102085.59;5049876;28;20029;-72
2020/12/23 05:37:38;;;;;;;6.25;0.90;;;;;;;17.66;66.64;102092.66;5050746;28;20383;-71
2020/12/23 05:40:04;;;;;;;7.82;1.70;;;;;;;17.62;67.11;102099.78;5051013;28;20505;-70
2020/12/23 05:42:29;;;;;;;4.70;1.00;;;;;;;17.64;66.78;102100.69;5049225;28;20037;-71
2020/12/23 05:44:54;;;;;;;5.20;0.73;;;;;;;17.69;67.09;102095.38;5050001;28;20437;-71
2020/12/23 05:47:20;;;;;;;2.55;1.00;;;;;;;17.60;66.81;102095.25;5049140;28;21100;-70
2020/12/23 05:49:45;;;;;;;5.55;1.00;;;;;;;17.62;67.34;102104.22;5049971;28;20036;-70
2020/12/23 05:52:10;;;;;;;9.98;1.20;;;;;;;17.63;67.32;102104.25;5050422;28;20037;-71
2020/12/23 05:54:36;;;;;;;1.55;0.80;;;;;;;17.68;67.32;102117.63;5049631;28;20088;-72
2020/12/23 05:57:01;;;;;;;1.30;0.90;;;;;;;17.65;67.22;102104.25;5050422;28;20096;-71
2020/12/23 05:59:26;;;;;;;3.25;1.20;;;;;;;17.63;66.57;102109.59;5050046;28;20055;-71
2020/12/23 06:01:52;;;;;;;5.05;0.90;;;;;;;17.62;67.21;102117.56;5050185;28;20033;-71
2020/12/23 06:04:17;;;;;;;2.95;0.98;;;;;;;17.61;66.44;102111.34;5048969;28;20032;-71
2020/12/23 06:06:43;;;;;;;3.15;1.00;;;;;;;17.61;66.95;102123.78;5051311;28;20052;-71
2020/12/23 06:09:09;;;;;;;1.92;0.75;;;;;;;17.58;66.80;102116.63;5048341;28;20025;-71
2020/12/23 06:11:34;;;;;;;1.55;0.82;;;;;;;17.61;67.16;102121.13;5049440;28;20078;-72
2020/12/23 06:14:00;;;;;;;7.32;1.08;;;;;;;17.59;67.34;102122.88;5048644;28;20485;-72
2020/12/23 06:16:25;;;;;;;1.30;0.95;;;;;;;17.57;67.15;102119.28;5050326;28;20036;-71
2020/12/23 06:18:50;;;;;;;7.45;1.13;;;;;;;17.56;67.43;102113.03;5049164;28;20493;-71
2020/12/23 06:21:15;;;;;;;3.25;0.90;;;;;;;17.59;67.27;102110.38;5050657;28;20021;-71
2020/12/23 06:23:41;;;;;;;5.80;0.90;;;;;;;17.60;66.78;102111.28;5048743;28;20037;-71
2020/12/23 06:26:06;;;;;;;1.80;1.10;;;;;;;17.61;66.67;102114.00;5048911;28;20029;-72
2020/12/23 06:28:31;;;;;;;4.63;1.00;;;;;;;17.67;66.83;102108.72;5050252;28;20048;-72
2020/12/23 06:30:57;;;;;;;10.85;1.30;;;;;;;17.68;66.82;102106.94;5049223;28;20036;-71
2020/12/23 06:33:22;;;;;;;2.05;1.05;;;;;;;17.73;67.08;102115.88;5049800;28;20033;-72
2020/12/23 06:35:48;;;;;;;3.40;0.95;;;;;;;17.72;67.35;102108.78;5048587;28;20455;-72
2020/12/23 06:38:13;;;;;;;2.22;0.90;;;;;;;17.67;67.79;102116.72;5048567;28;20580;-73
2020/12/23 06:40:38;;;;;;;3.83;0.85;;;;;;;17.69;66.96;102116.75;5048323;28;20040;-73
2020/12/23 06:43:03;;;;;;;1.77;0.90;;;;;;;17.68;67.11;102118.53;5048440;28;20033;-72
2020/12/23 06:45:29;;;;;;;4.20;1.05;;;;;;;17.71;67.25;102123.00;5048845;28;20166;-72
2020/12/23 06:47:54;;;;;;;1.35;0.85;;;;;;;17.68;67.25;102129.19;5048935;28;20025;-72
2020/12/23 06:50:19;;;;;;;1.75;0.82;;;;;;;17.68;67.18;102120.28;5050446;28;20649;-72
2020/12/23 06:52:45;;;;;;;1.65;0.90;;;;;;;17.68;67.18;102122.97;5049631;28;20472;-72
2020/12/23 06:55:10;;;;;;;1.70;0.90;;;;;;;17.67;67.26;102122.06;5048422;28;20410;-73
2020/12/23 06:57:39;;;;;;;5.35;0.98;;;;;;;17.67;67.13;102127.41;5049363;28;20052;-71
2020/12/23 07:00:04;;;;;;;2.28;1.02;;;;;;;17.69;67.20;102125.66;5047274;28;20067;-71
2020/12/23 07:02:29;;;;;;;1.98;0.80;;;;;;;17.68;67.50;102128.31;5048020;28;20481;-71
2020/12/23 07:04:55;;;;;;;6.82;0.80;;;;;;;17.70;66.46;102126.56;5048113;28;20060;-70
2020/12/23 07:07:20;;;;;;;1.10;0.90;;;;;;;17.67;67.07;102121.16;5048275;28;20681;-70
2020/12/23 07:09:45;;;;;;;1.73;0.90;;;;;;;17.67;67.13;102119.41;5049462;28;20033;-70
2020/12/23 07:12:11;;;;;;;2.30;0.90;;;;;;;17.69;66.94;102124.75;5049340;28;20037;-70
2020/12/23 07:14:36;;;;;;;1.48;0.90;;;;;;;17.67;66.97;102127.41;5048717;28;20666;-70
2020/12/23 07:17:01;;;;;;;2.13;0.80;;;;;;;17.68;66.46;102131.88;5048460;28;20051;-70
2020/12/23 07:19:27;;;;;;;3.00;1.00;;;;;;;17.72;67.09;102122.13;5047001;28;20240;-69
2020/12/23 07:21:52;;;;;;;6.13;0.90;;;;;;;17.68;67.13;102122.97;5047036;28;20037;-70
2020/12/23 07:24:17;;;;;;;11.50;1.17;;;;;;;17.74;67.06;102131.94;5046639;28;20043;-68
2020/12/23 07:26:43;;;;;;;13.40;1.05;;;;;;;17.78;66.64;102133.75;5047538;28;20108;-69
2020/12/23 07:29:08;;;;;;;1.05;0.82;;;;;;;17.77;66.25;102131.06;5048069;28;20056;-71
2020/12/23 07:31:33;;;;;;;11.98;0.90;;;;;;;17.77;66.75;102128.41;5049146;28;20037;-69
2020/12/23 07:33:59;;;;;;;1.83;0.90;;;;;;;17.74;66.61;102125.69;5049194;28;20029;-69
2020/12/23 07:36:24;;;;;;;12.13;1.10;;;;;;;17.84;66.01;102140.91;5048985;28;20029;-70
2020/12/23 07:38:49;;;;;;;10.73;1.55;;;;;;;17.99;66.40;102134.78;5049429;28;20017;-70
2020/12/23 07:41:15;;;;;;;43.80;2.75;;;;;;;18.15;65.33;102137.59;5051740;28;20028;-71
2020/12/23 07:43:41;;;;;;;31.58;1.85;;;;;;;18.06;65.38;102139.28;5049600;28;20085;-70
2020/12/23 07:46:06;;;;;;;40.88;2.15;;;;;;;17.92;66.21;102133.84;5047587;28;20041;-67
2020/12/23 07:48:33;;;;;;;32.45;1.73;;;;;;;17.84;65.82;102135.56;5047051;28;20522;-70
2020/12/23 07:50:59;;;;;;;15.00;1.50;;;;;;;17.79;65.72;102139.97;5046625;28;20039;-72
2020/12/23 07:53:24;;;;;;;22.98;1.63;;;;;;;17.77;66.30;102134.63;5049680;28;20399;-71
2020/12/23 07:55:49;;;;;;;18.60;1.50;;;;;;;17.75;66.18;102127.47;5048561;28;20115;-71
2020/12/23 07:58:15;;;;;;;16.77;1.65;;;;;;;17.74;65.92;102125.69;5054297;28;20036;-71
2020/12/23 08:00:41;;;;;;;10.38;1.70;;;;;;;17.73;65.46;102123.88;5047744;28;20037;-71
2020/12/23 08:03:06;;;;;;;15.23;1.48;;;;;;;17.72;65.43;102123.00;5049071;28;20045;-71
2020/12/23 08:05:31;;;;;;;10.68;1.63;;;;;;;17.76;66.91;102121.25;5046630;28;20039;-71
2020/12/23 08:07:57;;;;;;;56.33;3.65;;;;;;;17.93;68.09;102130.28;5049012;28;20417;-69
2020/12/23 08:10:22;;;;;;;88.93;4.45;;;;;;;18.05;68.30;102122.34;5049281;28;20055;-71
2020/12/23 08:12:47;;;;;;;95.35;6.30;;;;;;;17.96;68.37;102127.66;5043049;28;20373;-68
2020/12/23 08:15:13;;;;;;;42.75;2.65;;;;;;;17.86;67.84;102129.34;5048313;28;20393;-70
2020/12/23 08:17:38;;;;;;;36.40;2.42;;;;;;;17.79;67.17;102132.84;5043401;28;20060;-69
2020/12/23 08:20:03;;;;;;;29.00;2.97;;;;;;;17.78;67.38;102131.09;5041610;28;20044;-69
2020/12/23 08:22:29;;;;;;;31.50;2.70;;;;;;;17.75;67.54;102125.72;5035011;28;20021;-70
2020/12/23 08:24:54;;;;;;;32.60;2.78;;;;;;;17.74;67.30;102125.69;5042650;28;20036;-70
2020/12/23 08:27:19;;;;;;;12.82;1.83;;;;;;;17.73;66.73;102118.53;5047901;28;20030;-70
2020/12/23 08:29:45;;;;;;;14.77;2.00;;;;;;;17.76;66.72;102118.59;5047799;28;20070;-69
2020/12/23 08:32:10;;;;;;;11.10;1.80;;;;;;;17.74;67.15;102121.25;5051529;28;20033;-70
2020/12/23 08:34:35;;;;;;;13.18;2.05;;;;;;;17.75;66.84;102119.47;5046215;28;20024;-71
2020/12/23 08:37:01;;;;;;;15.30;1.70;;;;;;;17.71;66.80;102117.66;5043565;28;20103;-71
2020/12/23 08:39:26;;;;;;;17.40;1.63;;;;;;;17.72;66.96;102120.31;5039023;28;20057;-71
2020/12/23 08:41:51;;;;;;;15.52;2.13;;;;;;;17.73;66.89;102111.44;5039224;28;20032;-75
2020/12/23 08:44:17;;;;;;;12.95;2.03;;;;;;;17.74;66.89;102117.66;5042119;28;20603;-71
2020/12/23 08:46:43;;;;;;;8.00;1.70;;;;;;;17.72;66.81;102114.97;5049914;28;20032;-71
2020/12/23 08:49:08;;;;;;;9.35;1.83;;;;;;;17.71;67.04;102112.31;5045886;28;20063;-72
2020/12/23 08:51:34;;;;;;;12.60;2.45;;;;;;;17.71;66.88;102112.31;5048849;28;20545;-71
2020/12/23 08:53:59;;;;;;;7.20;1.60;;;;;;;17.72;66.82;102106.09;5045655;28;20025;-71
2020/12/23 08:56:24;;;;;;;9.02;2.22;;;;;;;17.76;66.73;102110.56;5048956;28;20102;-72
2020/12/23 08:58:50;;;;;;;34.75;3.22;;;;;;;17.77;66.81;102107.03;5045695;28;20028;-71
2020/12/23 09:01:15;;;;;;;169.43;8.77;;;;;;;17.84;67.04;102096.41;5047113;28;20037;-71
2020/12/23 09:03:40;;;;;;;187.23;12.00;;;;;;;17.89;66.76;102104.44;5048952;28;20047;-72
2020/12/23 09:06:06;;;;;;;214.75;12.02;;;;;;;17.92;66.38;102099.09;5047674;28;20060;-72
2020/12/23 09:08:31;;;;;;;159.93;10.55;;;;;;;17.85;66.60;102094.63;5048299;28;20037;-72
2020/12/23 09:10:57;;;;;;;174.93;12.18;;;;;;;17.87;66.73;102100.84;5048841;28;20025;-72
2020/12/23 09:13:22;;;;;;;152.20;8.93;;;;;;;17.91;67.32;102095.56;5046498;28;20504;-74
2020/12/23 09:15:52;;;;;;;137.23;9.73;;;;;;;17.89;67.28;102102.66;5048192;28;20029;-73
2020/12/23 09:18:17;;;;;;;127.25;9.68;;;;;;;17.84;67.29;102090.16;5045265;28;20429;-71
2020/12/23 09:20:43;;;;;;;112.63;7.72;;;;;;;17.83;67.13;102093.72;5047967;28;20039;-71
2020/12/23 09:23:08;;;;;;;119.78;10.40;;;;;;;17.82;67.21;102090.13;5045712;28;20461;-70
2020/12/23 09:25:34;;;;;;;94.95;6.68;;;;;;;17.81;67.56;102083.00;5048791;28;20518;-71
2020/12/23 09:27:59;;;;;;;96.60;8.18;;;;;;;17.81;67.77;102082.09;5047398;28;20039;-71
2020/12/23 09:30:24;;;;;;;93.13;7.22;;;;;;;17.80;67.92;102086.56;5047842;28;20035;-71
2020/12/23 09:32:49;;;;;;;63.65;5.55;;;;;;;17.79;67.98;102079.41;5047743;28;20029;-70
2020/12/23 09:35:15;;;;;;;51.15;6.22;;;;;;;17.80;68.06;102078.53;5042843;28;20116;-70
2020/12/23 09:37:41;;;;;;;58.33;6.63;;;;;;;17.81;67.58;102083.00;5036880;28;20105;-70
2020/12/23 09:40:07;;;;;;;53.50;5.45;;;;;;;17.80;68.38;102082.97;5044851;28;20143;-70
2020/12/23 09:42:32;;;;;;;56.45;5.57;;;;;;;17.81;68.06;102080.34;5038706;28;20401;-70
2020/12/23 09:44:57;;;;;;;53.75;6.38;;;;;;;17.79;68.21;102081.19;5041328;28;20104;-70
2020/12/23 09:47:23;;;;;;;58.67;5.72;;;;;;;17.76;68.53;102068.72;5040457;28;20143;-69
2020/12/23 09:49:48;;;;;;;56.80;6.47;;;;;;;17.76;68.56;102073.16;5037536;28;20044;-71
2020/12/23 09:52:13;;;;;;;45.85;4.80;;;;;;;17.75;68.72;102066.03;5041791;28;20040;-71
2020/12/23 09:54:39;;;;;;;41.22;4.63;;;;;;;17.73;68.77;102052.66;5041306;28;20497;-70
2020/12/23 09:57:04;;;;;;;27.88;3.97;;;;;;;17.77;68.74;102054.50;5043589;28;20725;-70
2020/12/23 09:59:29;;;;;;;52.38;4.57;;;;;;;17.75;68.46;102060.69;5038288;28;20679;-71
2020/12/23 10:01:55;;;;;;;37.78;4.68;;;;;;;17.74;68.42;102049.13;5043160;28;20037;-70
2020/12/23 10:04:20;;;;;;;32.10;4.90;;;;;;;17.76;68.94;102042.00;5042047;28;20036;-70
2020/12/23 10:06:45;;;;;;;38.53;4.15;;;;;;;17.74;68.43;102045.53;5039912;28;20033;-70
2020/12/23 10:09:11;;;;;;;20.05;3.83;;;;;;;17.74;68.66;102037.53;5036869;28;20045;-70
2020/12/23 10:11:36;;;;;;;31.33;3.95;;;;;;;17.72;68.39;102031.31;5041596;28;20037;-71
2020/12/23 10:14:01;;;;;;;17.25;3.75;;;;;;;17.73;68.99;102035.75;5042537;28;20082;-71
2020/12/23 10:16:27;;;;;;;16.98;3.67;;;;;;;17.72;68.95;102033.97;5041639;28;20064;-70
2020/12/23 10:18:52;;;;;;;21.85;3.75;;;;;;;17.71;68.68;102030.41;5037621;28;20065;-70
2020/12/23 10:21:17;;;;;;;23.95;4.32;;;;;;;17.70;69.05;102014.38;5040291;28;20493;-71
2020/12/23 10:23:43;;;;;;;21.42;3.60;;;;;;;17.72;68.50;102013.47;5045779;28;20033;-71
2020/12/23 10:26:08;;;;;;;24.50;3.88;;;;;;;17.71;68.86;102022.41;5043583;28;20383;-71
2020/12/23 10:28:33;;;;;;;20.35;3.63;;;;;;;17.69;69.07;102017.91;5044393;28;20056;-71
2020/12/23 10:30:59;;;;;;;16.90;3.55;;;;;;;17.69;68.45;102017.91;5041351;28;20995;-71
2020/12/23 10:33:49;;;;;;;19.30;3.70;;;;;;;17.69;68.09;102012.56;5108875;27;20408;-71
2020/12/23 10:36:16;;;;;;;11.60;3.22;;;;;;;17.67;68.80;102023.25;5105149;28;20168;-72
2020/12/23 10:38:41;;;;;;;15.73;3.65;;;;;;;17.70;68.50;102020.59;5097974;28;20043;-71
2020/12/23 10:41:07;;;;;;;12.63;3.50;;;;;;;17.69;68.32;102013.47;5103331;28;20085;-71
2020/12/23 10:43:32;;;;;;;24.38;3.55;;;;;;;17.73;68.23;102011.69;5099326;28;20050;-72
2020/12/23 10:45:57;;;;;;;22.60;3.65;;;;;;;17.87;68.23;102007.34;5105673;28;20084;-72
2020/12/23 10:48:23;;;;;;;28.00;3.28;;;;;;;17.87;68.31;102005.56;5102733;28;20111;-72
2020/12/23 10:50:48;;;;;;;38.65;3.33;;;;;;;17.91;67.83;102009.16;5099452;28;20361;-72
2020/12/23 10:53:13;;;;;;;27.95;3.92;;;;;;;17.90;68.37;102012.72;5107083;28;20091;-72
2020/12/23 10:55:39;;;;;;;26.85;3.22;;;;;;;17.87;68.52;102013.56;5104193;28;20043;-71
2020/12/23 10:58:04;;;;;;;32.90;4.10;;;;;;;17.83;68.62;102018.91;5127010;27;20035;-70
2020/12/23 11:00:29;;;;;;;24.70;3.83;;;;;;;17.78;68.58;102018.00;5110612;28;20036;-70
2020/12/23 11:02:55;;;;;;;16.40;2.72;;;;;;;17.80;68.50;102014.41;5114145;28;20378;-71
2020/12/23 11:05:20;;;;;;;11.88;3.60;;;;;;;17.77;68.59;102009.09;5114502;28;20053;-70
2020/12/23 11:07:46;;;;;;;19.52;3.15;;;;;;;17.77;68.67;102016.19;5111389;28;20445;-71
2020/12/23 11:10:11;;;;;;;25.30;4.28;;;;;;;17.75;68.29;102012.63;5116743;28;20047;-71
2020/12/23 11:12:37;;;;;;;29.40;3.30;;;;;;;17.74;68.75;102014.38;5115777;28;20057;-70